Time;durP1;ratioP1;P1;durP2;ratioP2;P2;SDS_P1;SDS_P2;PMS_P1;PMS_P2;Temp;Humidity;BMP_temperature;BMP_pressure;BME280_temperature;BME280_humidity;BME280_pressure;Samples;Min_cycle;Max_cycle;Signal;HPM_P1;HPM_P2
2022/11/12 00:02:23;;;;;;;14.95;5.40;;;;;;;;;;5071584;28;20548;-62
2022/11/12 00:05:12;;;;;;;8.75;4.78;;;;;;;;;;5070762;28;20049;-62
2022/11/12 00:08:00;;;;;;;11.75;5.10;;;;;;;;;;5029297;28;20052;-61
2022/11/12 00:10:49;;;;;;;8.93;4.93;;;;;;;;;;5071312;28;20483;-62
2022/11/12 00:13:37;;;;;;;8.77;5.18;;;;;;;;;;5071104;28;20056;-61
2022/11/12 00:16:26;;;;;;;9.32;4.18;;;;;;;;;;5071504;28;20044;-62
2022/11/12 00:19:14;;;;;;;13.57;4.55;;;;;;;;;;5071461;28;20060;-62
2022/11/12 00:22:03;;;;;;;11.13;5.15;;;;;;;;;;5070474;28;20045;-62
2022/11/12 00:24:51;;;;;;;11.02;4.93;;;;;;;;;;5067160;28;20049;-63
2022/11/12 00:27:40;;;;;;;9.73;5.15;;;;;;;;;;5052905;28;20053;-62
2022/11/12 00:30:29;;;;;;;12.43;4.75;;;;;;;;;;5052249;28;20045;-64
2022/11/12 00:33:17;;;;;;;13.38;5.45;;;;;;;;;;5051986;28;20533;-62
2022/11/12 00:36:06;;;;;;;9.48;4.85;;;;;;;;;;5053112;28;20040;-63
2022/11/12 00:38:54;;;;;;;13.82;6.03;;;;;;;;;;5030491;28;20053;-61
2022/11/12 00:41:43;;;;;;;9.13;4.85;;;;;;;;;;5030393;28;20050;-63
2022/11/12 00:44:31;;;;;;;7.72;4.90;;;;;;;;;;5030710;28;20045;-62
2022/11/12 00:47:20;;;;;;;9.88;5.15;;;;;;;;;;5030215;28;20058;-62
2022/11/12 00:50:09;;;;;;;9.30;4.95;;;;;;;;;;5030547;28;20057;-62
2022/11/12 00:52:58;;;;;;;10.40;4.68;;;;;;;;;;5030975;28;20050;-62
2022/11/12 00:55:47;;;;;;;10.48;4.85;;;;;;;;;;5001885;28;20505;-62
2022/11/12 00:58:35;;;;;;;12.98;5.13;;;;;;;;;;5030260;28;20497;-63
2022/11/12 01:01:25;;;;;;;10.63;5.35;;;;;;;;;;5030337;28;20041;-62
2022/11/12 01:04:13;;;;;;;12.85;5.22;;;;;;;;;;5030640;28;20885;-62
2022/11/12 01:07:02;;;;;;;11.00;4.72;;;;;;;;;;5030571;28;20049;-64
2022/11/12 01:09:50;;;;;;;7.88;4.82;;;;;;;;;;5030695;28;20050;-64
2022/11/12 01:12:39;;;;;;;10.55;4.70;;;;;;;;;;5030255;28;20065;-65
2022/11/12 01:15:27;;;;;;;14.02;5.07;;;;;;;;;;5016569;28;20413;-64
2022/11/12 01:18:16;;;;;;;9.98;4.47;;;;;;;;;;5002171;28;20053;-64
2022/11/12 01:21:06;;;;;;;10.07;4.75;;;;;;;;;;5034432;28;20057;-64
2022/11/12 01:23:58;;;;;;;9.07;4.85;;;;;;;;;;5022503;28;20053;-65
2022/11/12 01:26:47;;;;;;;9.00;4.43;;;;;;;;;;5052304;28;20045;-63
2022/11/12 01:29:36;;;;;;;8.02;4.57;;;;;;;;;;5051921;28;20049;-61
2022/11/12 01:32:24;;;;;;;8.82;4.95;;;;;;;;;;5034881;28;20501;-63
2022/11/12 01:35:13;;;;;;;8.15;4.82;;;;;;;;;;5052162;28;20045;-63
2022/11/12 01:38:01;;;;;;;9.98;5.05;;;;;;;;;;5052237;28;20049;-64
2022/11/12 01:40:49;;;;;;;9.38;4.10;;;;;;;;;;5052041;28;20045;-64
2022/11/12 01:43:38;;;;;;;9.23;4.68;;;;;;;;;;5022074;28;20053;-63
2022/11/12 01:46:29;;;;;;;8.75;4.35;;;;;;;;;;5052108;28;20053;-63
2022/11/12 01:49:25;;;;;;;9.40;5.25;;;;;;;;;;5051889;28;20045;-64
2022/11/12 01:52:26;;;;;;;10.68;4.60;;;;;;;;;;5050924;28;20045;-64
2022/11/12 01:55:19;;;;;;;9.38;4.68;;;;;;;;;;5051841;28;20049;-63
2022/11/12 01:58:18;;;;;;;8.80;4.28;;;;;;;;;;5051966;28;20485;-63
2022/11/12 02:01:06;;;;;;;9.68;4.70;;;;;;;;;;5051919;28;20049;-63
2022/11/12 02:03:55;;;;;;;11.32;5.15;;;;;;;;;;5051833;28;20460;-63
2022/11/12 02:06:46;;;;;;;11.32;5.72;;;;;;;;;;5035822;28;20049;-65
2022/11/12 02:09:36;;;;;;;9.77;4.38;;;;;;;;;;5051722;28;20048;-63
2022/11/12 02:15:31;;;;;;;8.73;4.35;;;;;;;;;;5035972;28;20053;-64
2022/11/12 02:18:20;;;;;;;14.18;4.80;;;;;;;;;;5051687;28;20401;-63
2022/11/12 02:21:09;;;;;;;9.60;4.90;;;;;;;;;;5051665;28;20049;-63
2022/11/12 02:24:03;;;;;;;9.52;4.65;;;;;;;;;;5051731;28;20489;-63
2022/11/12 02:26:54;;;;;;;10.13;4.43;;;;;;;;;;5051456;28;20045;-63
2022/11/12 02:29:45;;;;;;;10.70;4.55;;;;;;;;;;5051626;28;20049;-63
2022/11/12 02:32:34;;;;;;;10.23;4.57;;;;;;;;;;5050734;28;20053;-63
2022/11/12 02:35:22;;;;;;;7.85;4.30;;;;;;;;;;5051484;28;20049;-63
2022/11/12 02:38:11;;;;;;;12.35;4.75;;;;;;;;;;5051368;28;20049;-63
2022/11/12 02:41:01;;;;;;;10.20;4.55;;;;;;;;;;5051616;28;20061;-63
2022/11/12 02:43:50;;;;;;;11.45;4.85;;;;;;;;;;5052259;28;20049;-63
2022/11/12 02:46:38;;;;;;;8.50;4.68;;;;;;;;;;5054604;28;20413;-63
2022/11/12 02:49:26;;;;;;;10.20;4.82;;;;;;;;;;5072914;28;20579;-63
2022/11/12 02:52:15;;;;;;;9.52;4.15;;;;;;;;;;5072562;28;20045;-63
2022/11/12 02:55:04;;;;;;;9.57;4.65;;;;;;;;;;5072927;28;20044;-63
2022/11/12 02:57:57;;;;;;;10.43;4.65;;;;;;;;;;5072919;28;20044;-63
2022/11/12 03:00:47;;;;;;;14.63;4.63;;;;;;;;;;5072569;28;20053;-63
2022/11/12 03:03:35;;;;;;;9.05;4.57;;;;;;;;;;5071795;28;20048;-64
2022/11/12 03:06:25;;;;;;;8.63;4.70;;;;;;;;;;5057644;28;20072;-63
2022/11/12 03:09:13;;;;;;;10.50;4.35;;;;;;;;;;5032252;28;20049;-63
2022/11/12 03:12:02;;;;;;;11.93;5.72;;;;;;;;;;5003850;28;20053;-63
2022/11/12 03:14:50;;;;;;;9.55;4.68;;;;;;;;;;5032108;28;20058;-63
2022/11/12 03:17:39;;;;;;;11.48;4.63;;;;;;;;;;5018198;28;20065;-63
2022/11/12 03:20:29;;;;;;;10.60;4.68;;;;;;;;;;5020233;28;20461;-63
2022/11/12 03:23:17;;;;;;;9.68;4.65;;;;;;;;;;4984452;28;20054;-63
2022/11/12 03:26:06;;;;;;;9.43;5.10;;;;;;;;;;5012209;28;20410;-63
2022/11/12 03:28:54;;;;;;;8.00;4.82;;;;;;;;;;5012378;28;20058;-63
2022/11/12 03:31:43;;;;;;;9.27;4.80;;;;;;;;;;5012351;28;20053;-63
2022/11/12 03:34:32;;;;;;;8.07;4.18;;;;;;;;;;5011765;28;20054;-63
2022/11/12 03:37:20;;;;;;;8.77;4.25;;;;;;;;;;5011597;28;20053;-63
2022/11/12 03:40:09;;;;;;;9.77;4.68;;;;;;;;;;5015711;28;20617;-64
2022/11/12 03:42:59;;;;;;;9.88;4.65;;;;;;;;;;5031702;28;20057;-63
2022/11/12 03:45:48;;;;;;;10.93;4.72;;;;;;;;;;5035866;28;20049;-63
2022/11/12 03:48:36;;;;;;;8.00;4.53;;;;;;;;;;5023109;28;20052;-65
2022/11/12 03:51:25;;;;;;;12.60;4.60;;;;;;;;;;5051626;28;20057;-63
2022/11/12 03:54:13;;;;;;;10.68;4.45;;;;;;;;;;5050691;28;20049;-64
2022/11/12 03:57:02;;;;;;;9.00;4.72;;;;;;;;;;5022328;28;20049;-63
2022/11/12 03:59:50;;;;;;;10.07;4.50;;;;;;;;;;5023240;28;20049;-63
2022/11/12 04:02:39;;;;;;;11.10;4.85;;;;;;;;;;5051007;28;20053;-63
2022/11/12 04:08:37;;;;;;;8.50;4.50;;;;;;;;;;5051106;28;20045;-63
2022/11/12 04:11:25;;;;;;;;;;;;;;;;;;5051094;28;20412;-63
2022/11/12 04:14:14;;;;;;;9.30;4.28;;;;;;;;;;5057691;28;19920;-63
2022/11/12 04:23:15;;;;;;;9.13;4.20;;;;;;;;;;5050719;28;20052;-64
2022/11/12 04:26:22;;;;;;;9.90;4.60;;;;;;;;;;5050569;28;20508;-64
2022/11/12 04:32:24;;;;;;;10.80;4.45;;;;;;;;;;5050846;28;20056;-63
2022/11/12 04:35:12;;;;;;;7.93;4.10;;;;;;;;;;5050702;28;20060;-63
2022/11/12 04:38:01;;;;;;;8.57;4.13;;;;;;;;;;5049978;28;20045;-63
2022/11/12 04:47:02;;;;;;;8.30;3.63;;;;;;;;;;5050339;28;20057;-63
2022/11/12 04:49:51;;;;;;;11.95;4.40;;;;;;;;;;5050440;28;20057;-63
2022/11/12 04:52:39;;;;;;;12.27;4.15;;;;;;;;;;5036567;28;20575;-63
2022/11/12 04:55:27;;;;;;;7.68;3.55;;;;;;;;;;5052386;28;20049;-63
2022/11/12 04:58:15;;;;;;;8.95;3.83;;;;;;;;;;5051552;28;20057;-63
2022/11/12 05:01:04;;;;;;;7.30;4.00;;;;;;;;;;5052495;28;20045;-64
2022/11/12 05:03:52;;;;;;;12.00;4.32;;;;;;;;;;5052398;28;20045;-63
2022/11/12 05:06:50;;;;;;;9.32;4.00;;;;;;;;;;5022340;28;20048;-63
2022/11/12 05:09:39;;;;;;;9.50;4.10;;;;;;;;;;5051838;28;20049;-63
2022/11/12 05:12:28;;;;;;;7.65;4.15;;;;;;;;;;5022398;28;20420;-63
2022/11/12 05:15:16;;;;;;;8.68;4.13;;;;;;;;;;5052458;28;20048;-64
2022/11/12 05:18:05;;;;;;;8.32;3.95;;;;;;;;;;5036019;28;20053;-66
2022/11/12 05:20:54;;;;;;;9.18;4.10;;;;;;;;;;5052145;28;20412;-63
2022/11/12 05:23:42;;;;;;;8.63;4.13;;;;;;;;;;5035712;28;20053;-64
2022/11/12 05:26:30;;;;;;;8.95;4.45;;;;;;;;;;5051914;28;20045;-64
2022/11/12 05:29:19;;;;;;;8.88;3.60;;;;;;;;;;5052151;28;20040;-64
2022/11/12 05:32:10;;;;;;;8.52;3.97;;;;;;;;;;5051939;28;20049;-63
2022/11/12 05:34:59;;;;;;;7.63;4.15;;;;;;;;;;5051938;28;20049;-64
2022/11/12 05:37:47;;;;;;;9.88;4.47;;;;;;;;;;5052041;28;20417;-63
2022/11/12 05:40:36;;;;;;;6.82;3.65;;;;;;;;;;5051828;28;20045;-66
2022/11/12 05:43:24;;;;;;;8.35;3.83;;;;;;;;;;5021539;28;20053;-64
2022/11/12 05:46:13;;;;;;;9.23;3.83;;;;;;;;;;5051799;28;20053;-64
2022/11/12 05:49:01;;;;;;;8.07;3.85;;;;;;;;;;5051785;28;20049;-64
2022/11/12 05:51:50;;;;;;;13.13;4.20;;;;;;;;;;5051678;28;20049;-64
2022/11/12 05:54:38;;;;;;;8.38;4.20;;;;;;;;;;5063519;28;20053;-64
2022/11/12 05:57:27;;;;;;;9.38;3.85;;;;;;;;;;5021546;28;20057;-64
2022/11/12 06:00:16;;;;;;;8.27;3.75;;;;;;;;;;5036141;28;20061;-64
2022/11/12 06:03:05;;;;;;;7.72;3.53;;;;;;;;;;5051838;28;20498;-65
2022/11/12 06:05:54;;;;;;;9.60;3.45;;;;;;;;;;5036295;28;20053;-65
2022/11/12 06:08:43;;;;;;;8.45;3.63;;;;;;;;;;5051101;28;20045;-65
2022/11/12 06:11:32;;;;;;;10.02;3.83;;;;;;;;;;5051573;28;20053;-66
2022/11/12 06:14:20;;;;;;;7.95;3.78;;;;;;;;;;5051502;28;20045;-64
2022/11/12 06:17:09;;;;;;;9.38;3.72;;;;;;;;;;5051456;28;20053;-64
2022/11/12 06:19:57;;;;;;;6.85;4.22;;;;;;;;;;5054542;28;20045;-65
2022/11/12 06:22:45;;;;;;;6.75;3.78;;;;;;;;;;5055394;28;20049;-65
2022/11/12 06:25:34;;;;;;;9.05;3.60;;;;;;;;;;5039154;28;20045;-64
2022/11/12 06:28:22;;;;;;;7.05;3.70;;;;;;;;;;5055351;28;20041;-65
2022/11/12 06:31:12;;;;;;;7.45;4.35;;;;;;;;;;5054261;28;20440;-64
2022/11/12 06:34:02;;;;;;;8.35;3.60;;;;;;;;;;5055036;28;20049;-64
2022/11/12 06:36:50;;;;;;;8.52;3.78;;;;;;;;;;5055151;28;20049;-64
2022/11/12 06:39:38;;;;;;;9.15;3.55;;;;;;;;;;5055085;28;20053;-64
2022/11/12 06:42:27;;;;;;;8.68;3.92;;;;;;;;;;5025357;28;20057;-65
2022/11/12 06:45:16;;;;;;;8.10;4.07;;;;;;;;;;5055210;28;20041;-64
2022/11/12 06:48:05;;;;;;;8.38;3.55;;;;;;;;;;5052825;28;20052;-64
2022/11/12 06:50:53;;;;;;;8.15;3.45;;;;;;;;;;5038856;28;20045;-64
2022/11/12 06:53:42;;;;;;;8.43;3.88;;;;;;;;;;5054980;28;20048;-64
2022/11/12 06:56:30;;;;;;;6.32;3.38;;;;;;;;;;5054814;28;20045;-64
2022/11/12 06:59:19;;;;;;;7.35;3.50;;;;;;;;;;5054526;28;20048;-66
2022/11/12 07:02:10;;;;;;;8.43;4.20;;;;;;;;;;5054909;28;20404;-65
2022/11/12 07:04:59;;;;;;;6.47;3.50;;;;;;;;;;5054471;28;20049;-65
2022/11/12 07:07:47;;;;;;;8.77;3.63;;;;;;;;;;5054803;28;20048;-65
2022/11/12 07:10:36;;;;;;;7.90;3.30;;;;;;;;;;5038554;28;20053;-65
2022/11/12 07:13:24;;;;;;;8.10;3.50;;;;;;;;;;5054545;28;20493;-64
2022/11/12 07:16:17;;;;;;;10.15;3.22;;;;;;;;;;5038154;28;20053;-64
2022/11/12 07:19:05;;;;;;;7.80;3.30;;;;;;;;;;5052711;28;20053;-64
2022/11/12 07:21:54;;;;;;;10.05;3.70;;;;;;;;;;5054631;28;20045;-64
2022/11/12 07:24:42;;;;;;;8.90;3.85;;;;;;;;;;5054130;28;20049;-65
2022/11/12 07:27:31;;;;;;;7.30;3.58;;;;;;;;;;5054368;28;20041;-64
2022/11/12 07:30:20;;;;;;;11.32;3.85;;;;;;;;;;5054225;28;20049;-64
2022/11/12 07:33:09;;;;;;;6.93;3.60;;;;;;;;;;5054107;28;20048;-64
2022/11/12 07:35:59;;;;;;;9.43;3.40;;;;;;;;;;5038290;28;20053;-64
2022/11/12 07:38:51;;;;;;;8.70;3.17;;;;;;;;;;5052465;28;20045;-64
2022/11/12 07:41:40;;;;;;;7.97;3.75;;;;;;;;;;5053893;28;20509;-65
2022/11/12 07:44:28;;;;;;;6.47;3.30;;;;;;;;;;5052497;28;20045;-64
2022/11/12 07:47:17;;;;;;;9.20;3.30;;;;;;;;;;5053048;28;20045;-65
2022/11/12 07:50:06;;;;;;;11.50;3.28;;;;;;;;;;5053824;28;20049;-64
2022/11/12 07:52:58;;;;;;;9.95;3.63;;;;;;;;;;5052818;28;20049;-64
2022/11/12 07:55:58;;;;;;;9.55;3.60;;;;;;;;;;5053827;28;20041;-64
2022/11/12 07:58:47;;;;;;;11.98;3.63;;;;;;;;;;5053949;28;20481;-64
2022/11/12 08:01:40;;;;;;;11.15;3.33;;;;;;;;;;5053588;28;20397;-64
2022/11/12 08:04:29;;;;;;;10.93;3.33;;;;;;;;;;5023911;28;20057;-64
2022/11/12 08:07:17;;;;;;;15.52;4.22;;;;;;;;;;5053628;28;20049;-64
2022/11/12 08:10:06;;;;;;;6.25;3.00;;;;;;;;;;5053359;28;20049;-64
2022/11/12 08:12:58;;;;;;;8.55;3.20;;;;;;;;;;5037322;28;20428;-64
2022/11/12 08:15:47;;;;;;;6.47;3.30;;;;;;;;;;5051931;28;20513;-65
2022/11/12 08:18:38;;;;;;;8.10;3.45;;;;;;;;;;5053248;28;20045;-64
2022/11/12 08:21:26;;;;;;;7.32;3.63;;;;;;;;;;5053512;28;20049;-65
2022/11/12 08:24:15;;;;;;;7.03;3.22;;;;;;;;;;5053341;28;20049;-64
2022/11/12 08:27:03;;;;;;;10.40;3.35;;;;;;;;;;5053074;28;20049;-64
2022/11/12 08:29:52;;;;;;;7.68;2.80;;;;;;;;;;5052982;28;20049;-64
2022/11/12 08:32:40;;;;;;;9.75;3.28;;;;;;;;;;5053106;28;20053;-64
2022/11/12 08:35:30;;;;;;;6.03;3.03;;;;;;;;;;5053003;28;20049;-64
2022/11/12 08:38:18;;;;;;;10.00;3.10;;;;;;;;;;5065126;28;20049;-64
2022/11/12 08:41:10;;;;;;;11.60;3.67;;;;;;;;;;5022448;28;20053;-64
2022/11/12 08:43:59;;;;;;;7.65;3.53;;;;;;;;;;5036312;28;20053;-64
2022/11/12 08:46:54;;;;;;;10.27;3.42;;;;;;;;;;5052358;28;20052;-64
2022/11/12 08:49:43;;;;;;;7.65;2.85;;;;;;;;;;5022617;28;20045;-64
2022/11/12 08:52:34;;;;;;;6.15;3.35;;;;;;;;;;5022407;28;20052;-64
2022/11/12 08:55:22;;;;;;;11.52;3.83;;;;;;;;;;5052419;28;20053;-64
2022/11/12 08:58:11;;;;;;;8.05;3.15;;;;;;;;;;5052735;28;20053;-64
2022/11/12 09:01:05;;;;;;;8.85;3.30;;;;;;;;;;5052605;28;20053;-64
2022/11/12 09:03:54;;;;;;;12.73;3.42;;;;;;;;;;5036187;28;20053;-64
2022/11/12 09:06:42;;;;;;;11.73;3.53;;;;;;;;;;5052372;28;20048;-64
2022/11/12 09:09:36;;;;;;;9.15;3.50;;;;;;;;;;5052616;28;20045;-64
2022/11/12 09:12:24;;;;;;;9.10;3.60;;;;;;;;;;5036060;28;20056;-64
2022/11/12 09:15:13;;;;;;;10.98;2.90;;;;;;;;;;5033815;28;20052;-65
2022/11/12 09:18:21;;;;;;;12.20;3.50;;;;;;;;;;5051823;28;20044;-65
2022/11/12 09:21:11;;;;;;;8.23;3.45;;;;;;;;;;5069363;28;20052;-67
2022/11/12 09:23:59;;;;;;;11.43;3.28;;;;;;;;;;5069568;28;20056;-65
2022/11/12 09:26:51;;;;;;;7.07;2.78;;;;;;;;;;5026805;28;20048;-65
2022/11/12 09:29:39;;;;;;;11.00;3.35;;;;;;;;;;5069327;28;20056;-65
2022/11/12 09:32:28;;;;;;;10.95;3.28;;;;;;;;;;5069283;28;20053;-65
2022/11/12 09:35:17;;;;;;;16.48;3.25;;;;;;;;;;5069189;28;20060;-65
2022/11/12 09:38:06;;;;;;;8.93;3.10;;;;;;;;;;5069310;28;20061;-64
2022/11/12 09:41:03;;;;;;;7.25;3.05;;;;;;;;;;5069198;28;20088;-65
2022/11/12 09:43:56;;;;;;;9.45;3.55;;;;;;;;;;5069473;28;20404;-65
2022/11/12 09:47:08;;;;;;;8.10;2.75;;;;;;;;;;5041271;28;20095;-64
2022/11/12 09:50:25;;;;;;;6.47;2.53;;;;;;;;;;5010007;28;20054;-63
2022/11/12 09:53:30;;;;;;;13.60;3.03;;;;;;;;;;5009836;28;20057;-64
2022/11/12 09:56:20;;;;;;;8.90;2.95;;;;;;;;;;4970822;28;20505;-63
2022/11/12 09:59:12;;;;;;;7.00;3.15;;;;;;;;;;5013524;28;20046;-64
2022/11/12 10:02:26;;;;;;;8.98;2.78;;;;;;;;;;5013544;28;20050;-64
2022/11/12 10:05:30;;;;;;;7.60;2.83;;;;;;;;;;4961057;28;20058;-65
2022/11/12 10:08:47;;;;;;;7.95;3.45;;;;;;;;;;4974388;28;20095;-64
2022/11/12 10:18:22;;;;;;;7.63;3.72;;;;;;;;;;4897942;29;20417;-63
2022/11/12 10:21:27;;;;;;;11.05;3.58;;;;;;;;;;4897818;29;20056;-63
2022/11/12 10:24:15;;;;;;;7.97;3.47;;;;;;;;;;4897940;29;20056;-63
2022/11/12 10:27:19;;;;;;;8.40;4.05;;;;;;;;;;4909510;29;20090;-63
2022/11/12 10:30:15;;;;;;;6.57;3.10;;;;;;;;;;4916506;29;20077;-63
2022/11/12 10:33:04;;;;;;;6.65;2.90;;;;;;;;;;4916497;29;20052;-64
2022/11/12 10:35:53;;;;;;;6.00;2.35;;;;;;;;;;4916469;29;20060;-63
2022/11/12 10:38:44;;;;;;;6.25;2.50;;;;;;;;;;4916518;29;20052;-63
2022/11/12 10:41:33;;;;;;;5.60;2.63;;;;;;;;;;4926759;29;20059;-62
2022/11/12 10:44:26;;;;;;;7.15;2.92;;;;;;;;;;4954539;28;20042;-63
2022/11/12 10:47:41;;;;;;;6.38;2.55;;;;;;;;;;4954428;28;20051;-64
2022/11/12 10:50:40;;;;;;;4.20;2.05;;;;;;;;;;5054918;28;20508;-63
2022/11/12 10:53:39;;;;;;;4.80;2.08;;;;;;;;;;5038804;28;20057;-63
2022/11/12 10:56:31;;;;;;;4.93;2.17;;;;;;;;;;5054246;28;20413;-62
2022/11/12 10:59:20;;;;;;;4.70;1.95;;;;;;;;;;5054749;28;20053;-63
2022/11/12 11:02:17;;;;;;;9.10;2.33;;;;;;;;;;5054316;28;20048;-63
2022/11/12 11:05:31;;;;;;;7.93;2.38;;;;;;;;;;5038115;28;20053;-63
2022/11/12 11:08:39;;;;;;;3.70;1.98;;;;;;;;;;5053357;28;20053;-64
2022/11/12 11:11:32;;;;;;;5.63;2.33;;;;;;;;;;5054214;28;20048;-63
2022/11/12 11:14:28;;;;;;;3.65;2.30;;;;;;;;;;5054420;28;20053;-63
2022/11/12 11:17:18;;;;;;;3.90;1.90;;;;;;;;;;5023992;28;20497;-65
2022/11/12 11:20:31;;;;;;;3.75;1.75;;;;;;;;;;5054102;28;20045;-64
2022/11/12 11:23:51;;;;;;;3.63;1.88;;;;;;;;;;5011670;28;20049;-63
2022/11/12 11:27:10;;;;;;;4.45;2.38;;;;;;;;;;4970157;28;20061;-62
2022/11/12 11:30:06;;;;;;;3.35;2.15;;;;;;;;;;5012034;28;20108;-62
2022/11/12 11:33:30;;;;;;;3.72;2.45;;;;;;;;;;4984061;28;20050;-63
2022/11/12 11:36:35;;;;;;;3.20;1.70;;;;;;;;;;5012385;28;20050;-63
2022/11/12 11:39:46;;;;;;;4.03;2.13;;;;;;;;;;4970391;28;20057;-62
2022/11/12 11:43:09;;;;;;;4.20;2.25;;;;;;;;;;5011647;28;20053;-63
2022/11/12 11:45:58;;;;;;;3.80;2.25;;;;;;;;;;5011526;28;20510;-63
2022/11/12 11:49:01;;;;;;;4.07;1.85;;;;;;;;;;5011853;28;20042;-62
2022/11/12 11:51:58;;;;;;;8.48;3.78;;;;;;;;;;5011750;28;20058;-63
2022/11/12 11:55:08;;;;;;;4.25;2.60;;;;;;;;;;4970178;28;20406;-62
2022/11/12 11:58:22;;;;;;;7.15;3.60;;;;;;;;;;4970834;28;20521;-61
2022/11/12 12:01:43;;;;;;;5.55;2.60;;;;;;;;;;5050218;28;20049;-60
2022/11/12 12:04:47;;;;;;;4.50;2.45;;;;;;;;;;5037551;28;20045;-60
2022/11/12 12:07:55;;;;;;;5.63;2.65;;;;;;;;;;5038980;28;20041;-63
2022/11/12 12:11:02;;;;;;;4.40;2.53;;;;;;;;;;5053274;28;20045;-62
2022/11/12 12:14:10;;;;;;;5.03;2.92;;;;;;;;;;5053448;28;20045;-62
2022/11/12 12:17:27;;;;;;;5.07;2.70;;;;;;;;;;5052484;28;20045;-62
2022/11/12 12:20:32;;;;;;;6.00;2.78;;;;;;;;;;4996926;28;20058;-62
2022/11/12 12:23:32;;;;;;;5.32;2.53;;;;;;;;;;5011216;28;20046;-63
2022/11/12 12:26:26;;;;;;;5.00;2.25;;;;;;;;;;4971507;28;20051;-62
2022/11/12 12:29:39;;;;;;;4.40;2.70;;;;;;;;;;4972142;28;20058;-62
2022/11/12 12:32:37;;;;;;;4.88;2.30;;;;;;;;;;4944422;28;20058;-65
2022/11/12 12:35:38;;;;;;;4.72;1.80;;;;;;;;;;4972184;28;20054;-62
2022/11/12 12:38:32;;;;;;;5.60;2.20;;;;;;;;;;4971942;28;20491;-62
2022/11/12 12:41:44;;;;;;;4.80;1.98;;;;;;;;;;4969713;28;20042;-63
2022/11/12 12:45:00;;;;;;;4.05;1.95;;;;;;;;;;4971013;28;20519;-64
2022/11/12 12:47:51;;;;;;;4.75;2.50;;;;;;;;;;4971419;28;20042;-63
2022/11/12 12:50:41;;;;;;;6.05;2.63;;;;;;;;;;4971431;28;20059;-63
2022/11/12 12:53:31;;;;;;;4.00;2.20;;;;;;;;;;4971673;28;20570;-64
2022/11/12 12:56:23;;;;;;;3.95;2.10;;;;;;;;;;4984257;28;20053;-63
2022/11/12 12:59:21;;;;;;;12.82;6.95;;;;;;;;;;5029827;28;20045;-65
2022/11/12 13:02:21;;;;;;;11.90;5.22;;;;;;;;;;5030178;28;20053;-63
2022/11/12 13:05:25;;;;;;;5.85;3.55;;;;;;;;;;5051664;28;20091;-63
2022/11/12 13:08:20;;;;;;;3.83;2.17;;;;;;;;;;5051745;28;20044;-62
2022/11/12 13:11:09;;;;;;;5.22;2.30;;;;;;;;;;5052002;28;20045;-63
2022/11/12 13:14:38;;;;;;;5.60;2.78;;;;;;;;;;5064529;28;20045;-63
2022/11/12 13:17:52;;;;;;;6.50;4.18;;;;;;;;;;5049885;28;20057;-60
2022/11/12 13:20:42;;;;;;;6.70;3.75;;;;;;;;;;4968357;28;20054;-63
2022/11/12 13:27:39;;;;;;;4.82;2.70;;;;;;;;;;5009988;28;20065;-63
2022/11/12 13:30:28;;;;;;;6.03;2.15;;;;;;;;;;4966746;28;20085;-61
2022/11/12 13:33:27;;;;;;;5.63;2.40;;;;;;;;;;4981350;28;20573;-62
2022/11/12 13:36:28;;;;;;;4.88;2.55;;;;;;;;;;5009678;28;20058;-66
2022/11/12 13:39:19;;;;;;;4.00;2.30;;;;;;;;;;5009930;28;20046;-63
2022/11/12 13:45:24;;;;;;;;;;;;;;;;;;5009837;28;20049;-63
2022/11/12 13:48:38;;;;;;;5.63;2.03;;;;;;;;;;5005678;28;20325;-63
2022/11/12 13:51:43;;;;;;;5.80;3.28;;;;;;;;;;5002828;28;20096;-63
2022/11/12 13:54:37;;;;;;;4.00;2.63;;;;;;;;;;4973728;28;20057;-63
2022/11/12 13:57:29;;;;;;;5.30;2.63;;;;;;;;;;5030734;28;20065;-64
2022/11/12 14:00:19;;;;;;;8.02;5.57;;;;;;;;;;5031346;28;20057;-63
2022/11/12 14:03:07;;;;;;;7.50;3.97;;;;;;;;;;5031592;28;20420;-63
2022/11/12 14:06:02;;;;;;;4.10;2.55;;;;;;;;;;5015492;28;20054;-65
2022/11/12 14:09:17;;;;;;;5.20;2.38;;;;;;;;;;5031749;28;20494;-63
2022/11/12 14:12:29;;;;;;;6.13;2.53;;;;;;;;;;5031396;28;20432;-63
2022/11/12 14:15:24;;;;;;;4.30;2.53;;;;;;;;;;5031359;28;20417;-63
2022/11/12 14:18:28;;;;;;;4.63;2.75;;;;;;;;;;5029233;28;20057;-62
2022/11/12 14:21:18;;;;;;;4.15;2.47;;;;;;;;;;5031349;28;20054;-64
2022/11/12 14:24:12;;;;;;;3.95;2.35;;;;;;;;;;5031223;28;20708;-63
2022/11/12 14:27:01;;;;;;;3.70;2.30;;;;;;;;;;5048523;28;20556;-64
2022/11/12 14:30:09;;;;;;;5.03;2.45;;;;;;;;;;5048972;28;20061;-63
2022/11/12 14:33:10;;;;;;;4.40;2.22;;;;;;;;;;5049128;28;20045;-61
2022/11/12 14:36:04;;;;;;;6.72;2.40;;;;;;;;;;5048704;28;20057;-63
2022/11/12 14:38:56;;;;;;;3.17;2.00;;;;;;;;;;5048744;28;20052;-64
2022/11/12 14:41:47;;;;;;;3.85;2.22;;;;;;;;;;5032743;28;20053;-63
2022/11/12 14:44:38;;;;;;;4.57;2.22;;;;;;;;;;4989529;28;20655;-65
2022/11/12 14:47:26;;;;;;;3.45;2.03;;;;;;;;;;5032453;28;20061;-63
2022/11/12 14:50:29;;;;;;;4.35;2.25;;;;;;;;;;5032717;28;20069;-65
2022/11/12 14:53:38;;;;;;;4.20;2.38;;;;;;;;;;5004250;28;20049;-64
2022/11/12 14:56:39;;;;;;;5.40;2.25;;;;;;;;;;4990791;28;20045;-63
2022/11/12 14:59:29;;;;;;;5.75;2.63;;;;;;;;;;5031438;28;20093;-63
2022/11/12 15:02:27;;;;;;;4.22;2.47;;;;;;;;;;5003954;28;20049;-63
2022/11/12 15:05:51;;;;;;;4.15;2.47;;;;;;;;;;5031875;28;20045;-63
2022/11/12 15:08:41;;;;;;;4.15;2.65;;;;;;;;;;5031367;28;20046;-62
2022/11/12 15:11:44;;;;;;;6.43;2.80;;;;;;;;;;5003945;28;20062;-62
2022/11/12 15:14:33;;;;;;;4.32;2.70;;;;;;;;;;4989667;28;20097;-62
2022/11/12 15:17:30;;;;;;;6.28;2.40;;;;;;;;;;5032290;28;20045;-62
2022/11/12 15:20:19;;;;;;;5.93;2.85;;;;;;;;;;5034247;28;20042;-63
2022/11/12 15:23:18;;;;;;;5.05;2.65;;;;;;;;;;5033201;28;20061;-62
2022/11/12 15:26:14;;;;;;;5.75;2.80;;;;;;;;;;5033873;28;20083;-63
2022/11/12 15:29:23;;;;;;;4.68;2.83;;;;;;;;;;5017910;28;20057;-62
2022/11/12 15:32:11;;;;;;;5.25;2.75;;;;;;;;;;5031045;28;20079;-62
2022/11/12 15:35:01;;;;;;;4.28;2.83;;;;;;;;;;4989734;28;20093;-62
2022/11/12 15:37:50;;;;;;;7.90;2.72;;;;;;;;;;4991574;28;20054;-63
2022/11/12 15:40:44;;;;;;;5.40;2.83;;;;;;;;;;4964555;28;20050;-62
2022/11/12 15:43:35;;;;;;;4.93;2.63;;;;;;;;;;4992073;28;20054;-63
2022/11/12 15:46:25;;;;;;;4.68;3.05;;;;;;;;;;4991874;28;20047;-63
2022/11/12 15:49:13;;;;;;;5.85;2.75;;;;;;;;;;4977837;28;20050;-62
2022/11/12 15:52:02;;;;;;;5.35;3.03;;;;;;;;;;4990664;28;20469;-62
2022/11/12 15:54:51;;;;;;;4.50;3.10;;;;;;;;;;4991942;28;20070;-62
2022/11/12 15:57:49;;;;;;;4.88;2.75;;;;;;;;;;4991971;28;20415;-63
2022/11/12 16:00:38;;;;;;;5.60;3.08;;;;;;;;;;4978378;28;20058;-63
2022/11/12 16:03:27;;;;;;;10.32;3.13;;;;;;;;;;4991799;28;20050;-63
2022/11/12 16:06:16;;;;;;;5.28;2.67;;;;;;;;;;4991646;28;20046;-62
2022/11/12 16:09:04;;;;;;;5.57;2.70;;;;;;;;;;5001047;28;20050;-62
2022/11/12 16:11:56;;;;;;;6.40;3.35;;;;;;;;;;5011140;28;20050;-62
2022/11/12 16:14:45;;;;;;;4.70;2.90;;;;;;;;;;5033054;28;20053;-62
2022/11/12 16:17:33;;;;;;;4.90;3.47;;;;;;;;;;5017151;28;20057;-62
2022/11/12 16:20:26;;;;;;;5.13;3.00;;;;;;;;;;5033231;28;20422;-63
2022/11/12 16:23:14;;;;;;;10.68;3.83;;;;;;;;;;5033223;28;20049;-63
2022/11/12 16:26:07;;;;;;;4.93;3.33;;;;;;;;;;5033104;28;20045;-62
2022/11/12 16:28:56;;;;;;;5.05;3.00;;;;;;;;;;5003299;28;20045;-63
2022/11/12 16:31:45;;;;;;;4.93;3.33;;;;;;;;;;5032830;28;20049;-63
2022/11/12 16:34:33;;;;;;;6.35;3.20;;;;;;;;;;5032974;28;20505;-62
2022/11/12 16:37:22;;;;;;;6.47;3.28;;;;;;;;;;5032865;28;20061;-62
2022/11/12 16:40:20;;;;;;;6.63;3.30;;;;;;;;;;5032798;28;20061;-62
2022/11/12 16:43:09;;;;;;;7.07;3.10;;;;;;;;;;5032778;28;20053;-61
2022/11/12 16:45:58;;;;;;;6.68;3.60;;;;;;;;;;5032653;28;20398;-63
2022/11/12 16:48:47;;;;;;;6.70;3.38;;;;;;;;;;5032431;28;20054;-62
2022/11/12 16:51:35;;;;;;;5.15;3.15;;;;;;;;;;5050027;28;20045;-62
2022/11/12 16:54:25;;;;;;;5.13;3.35;;;;;;;;;;5049969;28;20044;-63
2022/11/12 16:57:13;;;;;;;4.93;3.15;;;;;;;;;;5036132;28;20053;-62
2022/11/12 17:00:03;;;;;;;6.70;3.65;;;;;;;;;;5049925;28;20512;-63
2022/11/12 17:02:51;;;;;;;6.18;3.30;;;;;;;;;;5049301;28;20056;-62
2022/11/12 17:05:40;;;;;;;6.50;3.28;;;;;;;;;;5049936;28;20056;-62
2022/11/12 17:08:29;;;;;;;5.78;3.70;;;;;;;;;;5049774;28;20528;-63
2022/11/12 17:11:20;;;;;;;5.95;3.72;;;;;;;;;;5049917;28;20057;-62
2022/11/12 17:14:09;;;;;;;5.85;3.33;;;;;;;;;;5022081;28;20057;-62
2022/11/12 17:16:58;;;;;;;6.70;3.22;;;;;;;;;;5049756;28;20057;-63
2022/11/12 17:19:46;;;;;;;6.65;3.20;;;;;;;;;;5049805;28;20048;-62
2022/11/12 17:22:35;;;;;;;5.95;3.33;;;;;;;;;;5015954;28;20057;-62
2022/11/12 17:25:24;;;;;;;7.00;3.38;;;;;;;;;;5032086;28;20045;-63
2022/11/12 17:28:13;;;;;;;5.88;3.63;;;;;;;;;;5031972;28;20046;-62
2022/11/12 17:31:12;;;;;;;6.05;3.25;;;;;;;;;;5002123;28;20049;-62
2022/11/12 17:34:05;;;;;;;11.95;7.10;;;;;;;;;;5031349;28;20053;-62
2022/11/12 17:36:54;;;;;;;6.05;3.30;;;;;;;;;;5031982;28;20417;-63
2022/11/12 17:39:43;;;;;;;6.78;3.67;;;;;;;;;;5032056;28;20045;-62
2022/11/12 17:42:31;;;;;;;7.70;3.65;;;;;;;;;;5031469;28;20049;-62
2022/11/12 17:45:20;;;;;;;6.55;3.80;;;;;;;;;;5031871;28;20049;-62
2022/11/12 17:48:08;;;;;;;9.07;4.95;;;;;;;;;;5016220;28;20050;-62
2022/11/12 17:51:24;;;;;;;9.65;5.60;;;;;;;;;;5031792;28;20046;-62